Meteo Giornale » Osservazioni meteo Stati Uniti (USA) » Midland
ore: 14:53 - Osservazioni Meteo Midland
Lat. 31° 56' N Lon. 102° 12' W Alt. 875 metri s.l.m.
36 °C
Poco Nuvoloso
Temp. 24 Ore
24 °C
36 °C
Sud
16.7 Km/h
Dew point 14 °C
Umidità 26 %
Visibilità 10 Km
Il sole sorge alle ore 07:23
Il sole tramonta alle ore 20:14
| Data e Ora | Cielo e Fenomeni | T °C | DP °C | Um. % | Pres. hPa | Vis. km | Vento km/h | |
|---|---|---|---|---|---|---|---|---|
| Oggi h: 14:53 | Poco Nuvoloso | 36 | 14 | 26 | 1016 | 10 | S 16.7 | |
| Oggi h: 13:53 | Poco Nuvoloso | 33 | 15 | 33 | 1017 | 10 | N 11.1 | |
| Oggi h: 12:53 | Sereno | 33 | 17 | 38 | 1017 | 10 | S/SE 27.8 | |
| Oggi h: 11:53 | Sereno | 32 | 18 | 43 | 1018 | 10 | S 24 | |
| Oggi h: 10:53 | Sereno | 29 | 19 | 54 | 1018 | 10 | S/SE 18.5 | |
| Oggi h: 09:53 | Sereno | 27 | 19 | 61 | 1018 | 10 | S 22.2 | |
| Oggi h: 08:53 | Sereno | 25 | 19 | 69 | 1018 | 10 | S 22.2 | |
| Oggi h: 07:53 | Sereno | 24 | 18 | 69 | 1017 | 10 | S/SE 18.5 | |
| Oggi h: 06:53 | Sereno | 25 | 18 | 65 | 1017 | 10 | S/SE 20.3 | |
| Oggi h: 05:53 | Sereno | 26 | 17 | 57 | 1016 | 10 | S/SE 24 | |
| Oggi h: 04:53 | Sereno | 26 | 16 | 54 | 1016 | 10 | S/SE 31.5 | |
| Oggi h: 03:53 | Sereno | 27 | 14 | 44 | 1016 | 10 | S/SE 29.6 | |
| Oggi h: 02:53 | Sereno | 27 | 14 | 44 | 1016 | 10 | S/SE 18.5 | |
| Oggi h: 01:53 | Sereno | 28 | 14 | 42 | 1016 | 10 | S/SE 24 | |
| Oggi h: 00:53 | Sereno | 29 | 14 | 39 | 1016 | 10 | S 20.3 | |
| Ieri h: 23:53 | Sereno | 29 | 13 | 37 | 1016 | 10 | S/SE 20.3 | |
| Ieri h: 22:53 | Sereno | 30 | 13 | 35 | 1016 | 10 | SE 16.7 | |
| Ieri h: 21:53 | Sereno | 32 | 12 | 29 | 1015 | 10 | SE 20.3 | |
| Ieri h: 20:53 | Sereno | 33 | 12 | 27 | 1014 | 10 | SE 20.3 | |
| Ieri h: 19:53 | Sereno | 35 | 11 | 23 | 1014 | 10 | SE 20.3 | |
| Ieri h: 18:53 | Sereno | 36 | 12 | 23 | 1013 | 10 | SE 24 | |
| Ieri h: 17:53 | Sereno | 36 | 12 | 23 | 1014 | 10 | S 18.5 | |
| Ieri h: 16:53 | Sereno | 36 | 13 | 25 | 1014 | 10 | E/SE 22.2 | |
| Ieri h: 15:53 | Sereno | 36 | 13 | 25 | 1015 | 10 | E/SE 20.3 | |



